createdAt,value
2019-03-05T00:01:25.185Z,58.65
2019-03-05T00:03:53.912Z,58.99
2019-03-05T00:06:21.734Z,58.78
2019-03-05T00:08:49.792Z,59.30
2019-03-05T00:11:17.834Z,59.33
2019-03-05T00:13:45.706Z,58.44
2019-03-05T00:16:13.779Z,58.30
2019-03-05T00:18:41.694Z,58.91
2019-03-05T00:21:09.517Z,58.69
2019-03-05T00:23:51.497Z,58.65
2019-03-05T00:26:23.043Z,58.69
2019-03-05T00:29:14.109Z,58.98
2019-03-05T00:31:42.153Z,58.71
2019-03-05T00:34:36.454Z,59.24
2019-03-05T00:37:37.738Z,59.43
2019-03-05T00:40:21.187Z,58.88
2019-03-05T00:43:03.980Z,59.12
2019-03-05T00:46:13.476Z,59.02
2019-03-05T00:48:58.654Z,58.87
2019-03-05T00:52:09.631Z,58.96
2019-03-05T00:54:47.615Z,58.63
2019-03-05T00:58:02.562Z,58.98
2019-03-05T01:00:47.630Z,58.88
2019-03-05T01:03:41.662Z,58.43
2019-03-05T01:06:27.801Z,58.42
2019-03-05T01:08:56.401Z,58.18
2019-03-05T01:11:25.028Z,58.02
2019-03-05T01:13:53.317Z,57.93
2019-03-05T01:16:25.088Z,57.69
2019-03-05T01:18:52.951Z,58.00
2019-03-05T01:21:20.919Z,57.69
2019-03-05T01:23:48.906Z,57.39
2019-03-05T01:26:16.931Z,56.75
2019-03-05T01:28:44.997Z,56.85
2019-03-05T01:31:42.112Z,57.05
2019-03-05T01:34:19.834Z,57.24
2019-03-05T01:36:53.968Z,57.62
2019-03-05T01:39:41.592Z,57.51
2019-03-05T01:42:09.777Z,57.26
2019-03-05T01:44:37.570Z,57.39
2019-03-05T01:47:05.734Z,57.52
2019-03-05T01:49:33.602Z,57.47
2019-03-05T01:52:01.622Z,58.08
2019-03-05T01:54:29.655Z,57.66
2019-03-05T01:56:57.472Z,57.90
2019-03-05T01:59:25.375Z,57.72
2019-03-05T02:01:53.508Z,57.73
2019-03-05T02:04:22.111Z,57.88
2019-03-05T02:06:49.998Z,57.78
2019-03-05T02:09:18.112Z,57.96
2019-03-05T02:11:46.164Z,58.00
2019-03-05T02:14:14.012Z,57.91
2019-03-05T02:16:42.464Z,57.77
2019-03-05T02:19:47.296Z,57.70
2019-03-05T02:22:34.381Z,58.03
2019-03-05T02:25:46.974Z,57.81
2019-03-05T02:28:46.096Z,57.78
2019-03-05T02:31:28.882Z,58.08
2019-03-05T02:34:28.643Z,58.12
2019-03-05T02:37:27.130Z,58.01
2019-03-05T02:40:51.811Z,58.02
2019-03-05T02:43:36.857Z,57.76
2019-03-05T02:46:52.278Z,57.63
2019-03-05T02:50:16.987Z,57.62
2019-03-05T02:53:29.262Z,57.58
2019-03-05T02:56:34.446Z,57.85
2019-03-05T02:59:01.521Z,57.82
2019-03-05T03:01:55.498Z,57.77
2019-03-05T03:04:26.213Z,57.83
2019-03-05T03:06:54.182Z,57.60
2019-03-05T03:10:04.817Z,57.48
2019-03-05T03:12:32.748Z,57.22
2019-03-05T03:15:00.540Z,57.72
2019-03-05T03:17:28.488Z,57.54
2019-03-05T03:19:56.478Z,56.94
2019-03-05T03:22:24.761Z,57.10
2019-03-05T03:24:52.606Z,57.08
2019-03-05T03:27:20.514Z,57.05
2019-03-05T03:29:48.469Z,57.26
2019-03-05T03:32:16.230Z,57.43
2019-03-05T03:34:45.049Z,57.44
2019-03-05T03:37:13.035Z,57.58
2019-03-05T03:39:41.049Z,57.39
2019-03-05T03:42:09.033Z,57.23
2019-03-05T03:44:36.997Z,57.04
2019-03-05T03:47:04.945Z,57.32
2019-03-05T03:49:33.357Z,57.15
2019-03-05T03:52:01.144Z,57.45
2019-03-05T03:54:29.043Z,57.73
2019-03-05T03:56:57.846Z,58.05
2019-03-05T03:59:25.766Z,58.23
2019-03-05T04:01:53.645Z,58.37
2019-03-05T04:04:21.684Z,58.37
2019-03-05T04:06:49.646Z,58.64
2019-03-05T04:09:17.680Z,58.61
2019-03-05T04:11:45.589Z,59.13
2019-03-05T04:14:13.511Z,59.23
2019-03-05T04:16:41.324Z,59.46
2019-03-05T04:19:12.322Z,59.38
2019-03-05T04:21:40.330Z,59.95
2019-03-05T04:24:08.249Z,60.04
2019-03-05T04:26:36.067Z,60.32
2019-03-05T04:29:04.126Z,60.53
2019-03-05T04:31:33.066Z,60.74
2019-03-05T04:34:00.922Z,60.85
2019-03-05T04:36:28.790Z,60.97
2019-03-05T04:38:56.606Z,61.45
2019-03-05T04:41:24.497Z,61.41
2019-03-05T04:43:55.840Z,61.45
2019-03-05T04:46:37.675Z,61.66
2019-03-05T04:49:31.145Z,61.56
2019-03-05T04:52:09.002Z,61.98
2019-03-05T04:54:37.237Z,62.47
2019-03-05T04:57:05.123Z,62.38
2019-03-05T04:59:33.052Z,62.60
2019-03-05T05:02:00.907Z,62.43
2019-03-05T05:04:28.734Z,62.55
2019-03-05T05:06:56.617Z,62.43
2019-03-05T05:09:24.562Z,62.62
2019-03-05T05:11:52.517Z,62.58
2019-03-05T05:14:20.363Z,62.87
2019-03-05T05:16:48.131Z,62.58
2019-03-05T05:19:16.057Z,62.15
2019-03-05T05:21:44.057Z,61.83
2019-03-05T05:24:12.002Z,61.94
2019-03-05T05:26:40.468Z,61.79
2019-03-05T05:29:09.057Z,62.11
2019-03-05T05:31:36.831Z,61.63
2019-03-05T05:34:04.627Z,61.89
2019-03-05T05:36:32.508Z,62.12
2019-03-05T05:39:00.423Z,62.06
2019-03-05T05:41:28.373Z,62.28
2019-03-05T05:43:56.355Z,62.61
2019-03-05T05:46:24.273Z,62.22
2019-03-05T05:48:52.020Z,62.56
2019-03-05T05:51:19.947Z,62.54
2019-03-05T05:53:48.107Z,62.56
2019-03-05T05:56:15.962Z,62.82
2019-03-05T05:58:43.852Z,62.62
2019-03-05T06:01:12.651Z,62.79
2019-03-05T06:03:40.487Z,62.58
2019-03-05T06:06:09.117Z,63.15
2019-03-05T06:08:37.027Z,62.77
2019-03-05T06:11:05.109Z,62.53
2019-03-05T06:13:33.468Z,62.82
2019-03-05T06:16:01.511Z,62.42
2019-03-05T06:18:29.270Z,62.82
2019-03-05T06:20:57.188Z,62.67
2019-03-05T06:23:25.216Z,62.53
2019-03-05T06:25:53.351Z,62.51
2019-03-05T06:28:21.122Z,62.49
2019-03-05T06:30:49.122Z,62.88
2019-03-05T06:33:17.112Z,62.91
2019-03-05T06:35:45.057Z,63.19
2019-03-05T06:38:13.032Z,63.22
2019-03-05T06:40:41.526Z,62.91
2019-03-05T06:43:09.431Z,63.05
2019-03-05T06:45:37.312Z,62.65
2019-03-05T06:48:09.950Z,62.42
2019-03-05T06:50:38.512Z,62.60
2019-03-05T06:53:06.347Z,62.55
2019-03-05T06:55:34.946Z,62.32
2019-03-05T06:58:03.152Z,62.27
2019-03-05T07:00:35.780Z,62.13
2019-03-05T07:03:04.254Z,61.91
2019-03-05T07:06:25.967Z,61.65
2019-03-05T07:09:01.717Z,61.79
2019-03-05T07:12:12.655Z,61.82
2019-03-05T07:15:12.691Z,61.54
2019-03-05T07:17:44.745Z,60.70
2019-03-05T07:21:13.182Z,60.71
2019-03-05T07:24:14.695Z,61.02
2019-03-05T07:26:42.634Z,60.88
2019-03-05T07:29:10.737Z,61.10
2019-03-05T07:31:38.638Z,60.74
2019-03-05T07:34:10.250Z,60.42
2019-03-05T07:36:38.131Z,60.21
2019-03-05T07:39:07.699Z,59.83
2019-03-05T07:41:35.549Z,59.29
2019-03-05T07:44:04.195Z,57.90
2019-03-05T07:46:32.012Z,57.97
2019-03-05T07:48:59.936Z,57.25
2019-03-05T07:51:27.829Z,56.40
2019-03-05T07:53:55.715Z,56.48
2019-03-05T07:56:24.796Z,56.55
2019-03-05T07:58:52.655Z,55.31
2019-03-05T08:01:22.512Z,55.39
2019-03-05T08:03:50.463Z,54.72
2019-03-05T08:06:18.363Z,54.54
2019-03-05T08:09:22.913Z,54.45
2019-03-05T08:11:51.821Z,54.25
2019-03-05T08:14:55.543Z,53.73
2019-03-05T08:17:24.377Z,53.82
2019-03-05T08:19:54.215Z,53.73
2019-03-05T08:22:22.372Z,53.19
2019-03-05T08:24:50.259Z,53.38
2019-03-05T08:27:18.841Z,53.98
2019-03-05T08:29:46.705Z,53.82
2019-03-05T08:32:14.756Z,54.15
2019-03-05T08:34:42.768Z,54.00
2019-03-05T08:37:13.347Z,53.99
2019-03-05T08:39:40.585Z,53.74
2019-03-05T08:42:08.725Z,54.40
2019-03-05T08:44:36.784Z,53.68
2019-03-05T08:47:04.751Z,53.02
2019-03-05T08:49:32.752Z,53.52
2019-03-05T08:52:00.609Z,53.06
2019-03-05T08:54:34.499Z,52.84
2019-03-05T08:57:03.266Z,51.78
2019-03-05T08:59:32.614Z,51.91
2019-03-05T09:02:00.825Z,51.95
2019-03-05T09:04:28.608Z,51.14
2019-03-05T09:06:57.050Z,50.65
2019-03-05T09:09:25.063Z,49.72
2019-03-05T09:11:53.403Z,50.40
2019-03-05T09:14:21.478Z,49.51
2019-03-05T09:16:49.444Z,49.00
2019-03-05T09:19:17.335Z,49.18
2019-03-05T09:21:45.277Z,49.71
2019-03-05T09:24:13.298Z,49.04
2019-03-05T09:26:50.688Z,49.17
2019-03-05T09:29:11.140Z,47.57
2019-03-05T09:31:39.915Z,47.65
2019-03-05T09:34:07.786Z,48.05
2019-03-05T09:36:36.076Z,47.48
2019-03-05T09:39:07.820Z,46.91
2019-03-05T09:41:35.690Z,47.43
2019-03-05T09:44:03.705Z,47.91
2019-03-05T09:46:31.538Z,47.81
2019-03-05T09:48:59.513Z,47.96
2019-03-05T09:51:27.670Z,48.08
2019-03-05T09:53:55.501Z,48.71
2019-03-05T09:56:28.537Z,48.73
2019-03-05T09:58:56.913Z,47.53
2019-03-05T10:01:24.899Z,48.04
2019-03-05T10:03:52.771Z,47.88
2019-03-05T10:06:20.748Z,48.52
2019-03-05T10:08:48.688Z,48.65
2019-03-05T10:11:16.701Z,49.08
2019-03-05T10:13:44.666Z,49.19
2019-03-05T10:16:12.854Z,48.39
2019-03-05T10:18:41.686Z,48.25
2019-03-05T10:21:11.898Z,47.93
2019-03-05T10:23:40.168Z,47.94
2019-03-05T10:26:10.459Z,48.18
2019-03-05T10:28:38.445Z,48.23
2019-03-05T10:31:06.693Z,48.48
2019-03-05T10:33:34.778Z,48.93
2019-03-05T10:36:02.789Z,48.62
2019-03-05T10:38:30.827Z,49.00
2019-03-05T10:40:58.940Z,49.33
2019-03-05T10:43:26.888Z,46.98
2019-03-05T10:45:54.812Z,46.72
2019-03-05T10:48:23.231Z,46.41
2019-03-05T10:50:51.315Z,46.80
2019-03-05T10:53:19.929Z,46.90
2019-03-05T10:55:48.420Z,46.39
2019-03-05T10:58:17.237Z,46.63
2019-03-05T11:00:46.473Z,46.71
2019-03-05T11:03:15.012Z,46.49
2019-03-05T11:05:43.256Z,46.60
2019-03-05T11:08:16.584Z,46.27
2019-03-05T11:10:44.657Z,46.72
2019-03-05T11:13:12.738Z,49.14
2019-03-05T11:15:40.794Z,50.50
2019-03-05T11:18:09.006Z,50.88
2019-03-05T11:20:37.149Z,51.96
2019-03-05T11:23:05.395Z,51.13
2019-03-05T11:25:33.439Z,52.15
2019-03-05T11:28:01.322Z,50.58
2019-03-05T11:30:36.107Z,49.59
2019-03-05T11:32:59.763Z,47.54
2019-03-05T11:35:27.925Z,46.97
2019-03-05T11:37:55.946Z,46.97
2019-03-05T11:40:24.626Z,45.70
2019-03-05T11:42:52.912Z,46.15
2019-03-05T11:45:26.245Z,45.67
2019-03-05T11:47:54.531Z,46.29
2019-03-05T11:50:23.034Z,46.32
2019-03-05T11:52:51.654Z,46.73
2019-03-05T11:55:20.354Z,46.86
2019-03-05T11:57:48.435Z,46.35
2019-03-05T12:00:21.318Z,47.03
2019-03-05T12:02:49.190Z,47.63
2019-03-05T12:05:17.257Z,48.24
2019-03-05T12:07:46.201Z,47.49
2019-03-05T12:10:17.334Z,47.38
2019-03-05T12:12:45.175Z,48.06
2019-03-05T12:15:14.126Z,48.31
2019-03-05T12:17:42.100Z,49.11
2019-03-05T12:20:11.172Z,49.00
2019-03-05T12:22:39.235Z,49.65
2019-03-05T12:25:08.984Z,49.43
2019-03-05T12:27:37.153Z,49.53
2019-03-05T12:30:06.160Z,49.06
2019-03-05T12:32:34.327Z,48.99
2019-03-05T12:35:02.211Z,48.66
2019-03-05T12:37:30.138Z,47.85
2019-03-05T12:39:58.032Z,46.40
2019-03-05T12:42:26.096Z,46.32
2019-03-05T12:44:54.976Z,45.53
2019-03-05T12:47:23.078Z,45.39
2019-03-05T12:49:51.118Z,44.83
2019-03-05T12:52:19.424Z,44.47
2019-03-05T12:54:47.498Z,43.12
2019-03-05T12:57:15.727Z,42.93
2019-03-05T12:59:43.906Z,43.44
2019-03-05T13:02:12.190Z,43.66
2019-03-05T13:04:40.296Z,44.40
2019-03-05T13:07:08.315Z,43.96
2019-03-05T13:09:36.456Z,43.59
2019-03-05T13:12:04.472Z,45.33
2019-03-05T13:14:32.363Z,47.40
2019-03-05T13:17:00.418Z,51.28
2019-03-05T13:19:28.420Z,51.05
2019-03-05T13:21:56.469Z,51.22
2019-03-05T13:24:25.040Z,51.05
2019-03-05T13:26:53.086Z,52.80
2019-03-05T13:29:21.126Z,52.56
2019-03-05T13:31:49.269Z,52.55
2019-03-05T13:34:19.893Z,52.68
2019-03-05T13:36:50.683Z,51.26
2019-03-05T13:39:22.278Z,50.46
2019-03-05T13:41:50.449Z,50.40
2019-03-05T13:44:32.099Z,48.89
2019-03-05T13:47:00.889Z,48.75
2019-03-05T13:49:44.850Z,47.73
2019-03-05T13:53:14.842Z,46.76
2019-03-05T13:56:12.253Z,45.87
2019-03-05T13:59:13.847Z,44.65
2019-03-05T14:01:42.023Z,44.00
2019-03-05T14:04:17.899Z,42.75
2019-03-05T14:07:36.348Z,42.98
2019-03-05T14:10:05.270Z,42.75
2019-03-05T14:12:34.698Z,43.25
2019-03-05T14:15:02.945Z,42.89
2019-03-05T14:17:38.453Z,43.40
2019-03-05T14:20:09.416Z,44.10
2019-03-05T14:22:37.536Z,44.60
2019-03-05T14:25:06.682Z,45.39
2019-03-05T14:27:34.810Z,45.53
2019-03-05T14:30:03.258Z,45.79
2019-03-05T14:32:31.548Z,46.58
2019-03-05T14:35:19.893Z,46.96
2019-03-05T14:37:47.992Z,47.53
2019-03-05T14:40:24.614Z,48.22
2019-03-05T14:42:49.515Z,50.08
2019-03-05T14:45:20.767Z,51.39
2019-03-05T14:47:48.977Z,51.97
2019-03-05T14:50:17.991Z,52.77
2019-03-05T14:52:46.169Z,56.96
2019-03-05T14:55:14.854Z,63.50
2019-03-05T14:57:42.886Z,63.69
2019-03-05T15:00:13.516Z,64.87
2019-03-05T15:02:41.728Z,66.86
2019-03-05T15:05:10.380Z,64.39
2019-03-05T15:07:46.950Z,63.64
2019-03-05T15:10:16.435Z,64.08
2019-03-05T15:12:44.676Z,64.20
2019-03-05T15:15:15.972Z,66.33
2019-03-05T15:17:44.375Z,68.60
2019-03-05T15:20:13.027Z,69.37
2019-03-05T15:22:41.257Z,69.11
2019-03-05T15:25:10.852Z,71.58
2019-03-05T15:27:39.071Z,71.55
2019-03-05T15:30:10.598Z,73.40
2019-03-05T15:32:38.684Z,72.28
2019-03-05T15:35:07.357Z,73.19
2019-03-05T15:37:35.340Z,70.18
2019-03-05T15:40:04.223Z,72.57
2019-03-05T15:42:32.399Z,70.36
2019-03-05T15:45:01.038Z,69.60
2019-03-05T15:47:29.163Z,69.66
2019-03-05T15:49:57.379Z,71.58
2019-03-05T15:52:25.535Z,71.48
2019-03-05T15:54:53.746Z,70.59
2019-03-05T15:57:26.161Z,69.87
2019-03-05T15:59:51.961Z,72.25
2019-03-05T16:02:20.029Z,71.03
2019-03-05T16:04:48.162Z,69.86
2019-03-05T16:07:16.640Z,71.23
2019-03-05T16:09:47.500Z,71.31
2019-03-05T16:12:15.838Z,71.72
2019-03-05T16:14:44.105Z,73.66
2019-03-05T16:17:12.251Z,72.65
2019-03-05T16:19:40.382Z,72.95
2019-03-05T16:22:09.150Z,71.84
2019-03-05T16:24:37.667Z,72.76
2019-03-05T16:27:07.137Z,72.22
2019-03-05T16:29:35.224Z,72.16
2019-03-05T16:32:23.051Z,72.31
2019-03-05T16:35:27.936Z,72.28
2019-03-05T16:38:21.396Z,72.51
2019-03-05T16:41:06.218Z,73.49
2019-03-05T16:44:06.096Z,72.93
2019-03-05T16:46:56.405Z,73.00
2019-03-05T16:49:43.864Z,73.16
2019-03-05T16:52:35.962Z,73.86
2019-03-05T16:55:23.864Z,73.40
2019-03-05T16:58:17.083Z,74.30
2019-03-05T17:01:04.650Z,74.00
2019-03-05T17:04:04.431Z,74.77
2019-03-05T17:06:58.991Z,74.49
2019-03-05T17:09:44.739Z,74.93
2019-03-05T17:12:21.006Z,74.42
2019-03-05T17:14:49.167Z,74.55
2019-03-05T17:17:17.279Z,74.16
2019-03-05T17:19:46.687Z,74.28
2019-03-05T17:22:14.738Z,74.45
2019-03-05T17:24:42.835Z,74.12
2019-03-05T17:27:10.861Z,74.44
2019-03-05T17:29:38.999Z,74.14
2019-03-05T17:32:07.342Z,74.53
2019-03-05T17:34:36.002Z,74.07
2019-03-05T17:37:04.042Z,74.79
2019-03-05T17:39:32.079Z,74.49
2019-03-05T17:42:00.151Z,75.39
2019-03-05T17:44:28.703Z,75.28
2019-03-05T17:46:56.870Z,74.37
2019-03-05T17:49:25.779Z,74.33
2019-03-05T17:51:53.814Z,74.72
2019-03-05T17:54:21.938Z,75.10
2019-03-05T17:56:50.410Z,75.29
2019-03-05T17:59:18.439Z,74.64
2019-03-05T18:01:46.594Z,74.20
2019-03-05T18:04:15.786Z,73.93
2019-03-05T18:06:44.357Z,74.62
2019-03-05T18:09:13.202Z,73.99
2019-03-05T18:11:42.774Z,74.53
2019-03-05T18:14:22.035Z,73.90
2019-03-05T18:16:50.117Z,73.57
2019-03-05T18:19:18.224Z,73.43
2019-03-05T18:21:46.305Z,73.33
2019-03-05T18:24:14.468Z,73.36
2019-03-05T18:26:42.507Z,73.29
2019-03-05T18:29:10.648Z,73.54
2019-03-05T18:31:41.153Z,73.44
2019-03-05T18:34:09.329Z,74.25
2019-03-05T18:36:37.439Z,73.96
2019-03-05T18:39:05.970Z,74.17
2019-03-05T18:41:34.044Z,74.79
2019-03-05T18:44:02.398Z,73.93
2019-03-05T18:46:31.027Z,74.10
2019-03-05T18:48:59.189Z,74.22
2019-03-05T18:51:28.418Z,74.80
2019-03-05T18:53:56.495Z,74.89
2019-03-05T18:56:24.640Z,74.51
2019-03-05T18:58:53.888Z,74.67
2019-03-05T19:01:22.121Z,74.66
2019-03-05T19:03:50.191Z,74.93
2019-03-05T19:06:18.636Z,74.92
2019-03-05T19:08:46.691Z,75.10
2019-03-05T19:11:14.919Z,74.86
2019-03-05T19:13:42.979Z,74.53
2019-03-05T19:16:16.983Z,74.55
2019-03-05T19:18:45.256Z,74.51
2019-03-05T19:21:13.382Z,74.92
2019-03-05T19:23:41.530Z,74.58
2019-03-05T19:26:11.679Z,74.67
2019-03-05T19:28:39.850Z,74.92
2019-03-05T19:31:07.944Z,74.73
2019-03-05T19:33:36.062Z,74.82
2019-03-05T19:36:04.438Z,75.13
2019-03-05T19:38:33.654Z,75.21
2019-03-05T19:41:02.074Z,75.16
2019-03-05T19:43:30.198Z,75.10
2019-03-05T19:45:59.119Z,74.95
2019-03-05T19:48:28.523Z,74.99
2019-03-05T19:50:58.211Z,74.71
2019-03-05T19:53:26.373Z,74.77
2019-03-05T19:55:54.419Z,74.68
2019-03-05T19:58:22.509Z,74.65
2019-03-05T20:01:05.299Z,74.94
2019-03-05T20:03:33.426Z,74.62
2019-03-05T20:06:01.561Z,75.25
2019-03-05T20:08:39.382Z,75.19
2019-03-05T20:11:02.694Z,74.97
2019-03-05T20:13:30.838Z,75.97
2019-03-05T20:15:59.246Z,76.01
2019-03-05T20:18:38.870Z,75.13
2019-03-05T20:21:07.272Z,74.68
2019-03-05T20:23:36.823Z,73.91
2019-03-05T20:26:05.328Z,73.84
2019-03-05T20:28:33.416Z,74.28
2019-03-05T20:31:01.447Z,75.03
2019-03-05T20:33:29.659Z,74.58
2019-03-05T20:35:58.570Z,74.89
2019-03-05T20:38:27.510Z,74.79
2019-03-05T20:40:55.473Z,75.12
2019-03-05T20:43:23.733Z,75.04
2019-03-05T20:45:53.423Z,74.81
2019-03-05T20:48:21.497Z,75.05
2019-03-05T20:50:49.482Z,75.48
2019-03-05T20:53:18.366Z,76.09
2019-03-05T20:55:46.545Z,75.27
2019-03-05T20:58:14.615Z,76.04
2019-03-05T21:00:42.959Z,75.41
2019-03-05T21:03:11.082Z,75.56
2019-03-05T21:05:40.231Z,75.38
2019-03-05T21:08:08.639Z,75.58
2019-03-05T21:10:36.878Z,75.59
2019-03-05T21:13:05.065Z,75.81
2019-03-05T21:15:33.209Z,75.62
2019-03-05T21:18:02.453Z,75.46
2019-03-05T21:20:30.720Z,76.53
2019-03-05T21:22:58.861Z,75.49
2019-03-05T21:25:26.938Z,75.34
2019-03-05T21:27:55.000Z,75.51
2019-03-05T21:30:23.153Z,75.35
2019-03-05T21:32:51.384Z,75.25
2019-03-05T21:35:19.554Z,75.66
2019-03-05T21:37:47.725Z,75.32
2019-03-05T21:40:20.594Z,75.42
2019-03-05T21:42:48.999Z,75.73
2019-03-05T21:45:20.072Z,75.52
2019-03-05T21:47:48.177Z,75.93
2019-03-05T21:50:16.694Z,75.82
2019-03-05T21:52:45.541Z,75.56
2019-03-05T21:55:14.559Z,75.99
2019-03-05T21:57:42.743Z,75.81
2019-03-05T22:00:14.025Z,77.05
2019-03-05T22:02:43.236Z,76.61
2019-03-05T22:05:11.364Z,77.12
2019-03-05T22:07:39.441Z,77.42
2019-03-05T22:10:10.079Z,77.42
2019-03-05T22:12:39.357Z,76.83
2019-03-05T22:15:09.169Z,76.67
2019-03-05T22:17:37.424Z,77.12
2019-03-05T22:20:06.857Z,77.81
2019-03-05T22:22:34.911Z,77.68
2019-03-05T22:25:04.903Z,77.85
2019-03-05T22:27:32.944Z,76.94
2019-03-05T22:30:01.034Z,77.26
2019-03-05T22:32:29.803Z,77.57
2019-03-05T22:34:57.828Z,77.41
2019-03-05T22:37:25.979Z,77.23
2019-03-05T22:39:54.467Z,78.08
2019-03-05T22:42:23.023Z,78.90
2019-03-05T22:44:51.911Z,78.55
2019-03-05T22:47:19.996Z,77.91
2019-03-05T22:49:48.152Z,77.61
2019-03-05T22:52:17.417Z,78.05
2019-03-05T22:54:45.446Z,77.66
2019-03-05T22:57:13.666Z,77.55
2019-03-05T22:59:41.673Z,77.55
2019-03-05T23:02:09.890Z,77.56
2019-03-05T23:04:40.641Z,77.54
2019-03-05T23:07:09.230Z,77.21
2019-03-05T23:09:37.410Z,77.53
2019-03-05T23:12:06.145Z,77.15
2019-03-05T23:14:34.776Z,77.27
2019-03-05T23:17:03.017Z,77.66
2019-03-05T23:19:31.154Z,77.35
2019-03-05T23:21:59.559Z,77.70
2019-03-05T23:24:27.783Z,77.45
2019-03-05T23:26:55.961Z,78.34
2019-03-05T23:29:58.637Z,78.26
2019-03-05T23:32:27.599Z,78.23
2019-03-05T23:34:56.681Z,78.79
2019-03-05T23:37:25.087Z,77.98
2019-03-05T23:39:53.129Z,78.07
2019-03-05T23:42:21.770Z,78.39
2019-03-05T23:44:50.164Z,77.97
2019-03-05T23:47:18.298Z,78.18
2019-03-05T23:49:46.357Z,77.96
2019-03-05T23:52:14.526Z,78.21
2019-03-05T23:54:42.447Z,77.69
2019-03-05T23:57:10.533Z,77.76
2019-03-05T23:59:38.567Z,77.65
